Cleveland, OH (44131)

6:20 AM EST on February 10, 2016 (GMT -0500)
Seven Hills | | Change Station
CLOSE
Current Station
Personal Weather Station
Location: Seven Hills, OH
Elevation: 889 ft
Nearby Weather Stations

Elev 889 ft 41.39 °N, 81.67 °W | Updated 56 seconds ago

Overcast
Overcast
20.3 °F
Feels Like 20 °F
N
0.0
Wind Variable Wind from SSW

Today
High -- | Low -- °F
--% Chance of Precip.
Yesterday
High -- | Low -- °F
Precip. -- in
Pressure 29.77 in
Visibility 9.0 miles
Clouds Overcast 2000 ft
Windchill 20 °F
Dew Point 19 °F
Humidity 95%
Rainfall 0.00 in
Snow Depth Not available.
7:28 AM 5:53 PM
Waxing Crescent, 5% visible
METAR KBKL 101053Z 23017G24KT 9SM OVC020 M04/M08 A2975 RMK AO2 SLP079 T10441078
Pressure 29.77 in
Visibility 9.0 miles
Clouds Overcast 2000 ft
Windchill 20 °F
Dew Point 19 °F
Humidity 95%
Rainfall 0.00 in
Snow Depth Not available.
7:28 AM 5:53 PM
Waxing Crescent, 5% visible
METAR KBKL 101053Z 23017G24KT 9SM OVC020 M04/M08 A2975 RMK AO2 SLP079 T10441078

10-Day Weather Forecast

Almanac

Astronomy

Feb. 10, 2016 Rise Set
Actual Time
Civil Twilight
Nautical Twilight
Astronomical Twilight
Moon
Length of Visible Light
Length of Day
Tomorrow will be .
, % of the Moon is Illuminated

Today's Extremes

State Highs State Lows

Community

WunderPhotos

Upload Photos

1,891,830 photos uploaded!

WunderBlog® & News

Nearby

Air Quality

  Air Quality AQ Index Pollutant
Not available.

Snow Depth

Station Depth Elevation

Earthquake Activity

City Distance Mag. Time & Date
Minimum magnitude displayed is 2.5.

Coastal Water Temperatures

Place Temperature

Stations

Nearby Weather Stations

Station Location Temp. Windchill Dew Point Humidity Wind Precip. Elev Updated Type
                   

Watches & Warnings

There are currently no watches in effect.